createdAt,value
2023-08-08T00:00:30.582Z,101173.81
2023-08-08T00:02:57.316Z,101171.66
2023-08-08T00:05:24.180Z,101173.22
2023-08-08T00:07:50.904Z,101156.22
2023-08-08T00:10:17.662Z,101166.50
2023-08-08T00:12:44.368Z,101160.09
2023-08-08T00:15:11.065Z,101154.81
2023-08-08T00:17:37.811Z,101160.69
2023-08-08T00:20:05.130Z,101158.03
2023-08-08T00:22:31.970Z,101156.22
2023-08-08T00:24:59.242Z,101148.25
2023-08-08T00:27:26.219Z,101160.78
2023-08-08T00:29:54.393Z,101156.53
2023-08-08T00:32:21.103Z,101163.25
2023-08-08T00:34:47.723Z,101164.53
2023-08-08T00:37:14.332Z,101170.59
2023-08-08T00:39:43.663Z,101164.78
2023-08-08T00:42:10.261Z,101167.69
2023-08-08T00:44:38.750Z,101165.03
2023-08-08T00:47:05.606Z,101164.72
2023-08-08T00:49:32.230Z,101150.72
2023-08-08T00:51:59.059Z,101153.63
2023-08-08T00:54:26.279Z,101156.56
2023-08-08T00:56:52.973Z,101152.03
2023-08-08T00:59:20.591Z,101150.97
2023-08-08T01:01:47.306Z,101149.81
2023-08-08T01:04:14.284Z,101152.25
2023-08-08T01:06:55.928Z,101154.69
2023-08-08T01:09:38.382Z,101162.84
2023-08-08T01:12:07.078Z,101165.03
2023-08-08T01:14:35.319Z,101149.31
2023-08-08T01:17:03.056Z,101152.03
2023-08-08T01:19:33.908Z,101149.13
2023-08-08T01:22:06.667Z,101144.69
2023-08-08T01:24:38.255Z,101149.75
2023-08-08T01:27:06.905Z,101149.00
2023-08-08T01:29:33.702Z,101143.91
2023-08-08T01:32:00.547Z,101152.41
2023-08-08T01:34:27.531Z,101134.41
2023-08-08T01:36:58.860Z,101147.34
2023-08-08T01:39:31.653Z,101138.13
2023-08-08T01:42:01.493Z,101135.41
2023-08-08T01:44:30.320Z,101141.84
2023-08-08T01:46:57.120Z,101124.53
2023-08-08T01:49:23.765Z,101127.16
2023-08-08T01:51:51.817Z,101124.50
2023-08-08T01:54:18.562Z,101126.72
2023-08-08T01:56:45.382Z,101121.34
2023-08-08T01:59:13.672Z,101123.72
2023-08-08T02:01:42.397Z,101126.88
2023-08-08T02:04:09.076Z,101119.81
2023-08-08T02:06:35.768Z,101111.59
2023-08-08T02:09:02.501Z,101104.22
2023-08-08T02:11:29.167Z,101102.66
2023-08-08T02:13:55.825Z,101097.63
2023-08-08T02:16:22.493Z,101092.84
2023-08-08T02:18:49.155Z,101100.78
2023-08-08T02:21:16.279Z,101093.31
2023-08-08T02:23:42.942Z,101093.88
2023-08-08T02:26:09.561Z,101094.16
2023-08-08T02:28:36.468Z,101095.47
2023-08-08T02:31:03.108Z,101104.50
2023-08-08T02:33:30.081Z,101110.59
2023-08-08T02:35:57.402Z,101102.38
2023-08-08T02:38:24.035Z,101101.06
2023-08-08T02:40:50.761Z,101106.56
2023-08-08T02:43:17.897Z,101096.56
2023-08-08T02:45:44.561Z,101103.38
2023-08-08T02:48:13.445Z,101102.06
2023-08-08T02:50:40.055Z,101098.06
2023-08-08T02:53:07.868Z,101096.22
2023-08-08T02:55:34.553Z,101088.53
2023-08-08T02:58:03.501Z,101090.91
2023-08-08T03:00:30.135Z,101085.41
2023-08-08T03:02:56.842Z,101098.41
2023-08-08T03:05:23.521Z,101099.00
2023-08-08T03:07:50.139Z,101103.00
2023-08-08T03:10:16.910Z,101091.38
2023-08-08T03:12:43.523Z,101097.94
2023-08-08T03:15:11.778Z,101095.50
2023-08-08T03:17:38.882Z,101095.03
2023-08-08T03:20:07.708Z,101097.06
2023-08-08T03:22:34.803Z,101100.34
2023-08-08T03:25:01.493Z,101080.19
2023-08-08T03:27:28.117Z,101085.50
2023-08-08T03:29:54.709Z,101090.03
2023-08-08T03:32:21.400Z,101077.81
2023-08-08T03:34:48.046Z,101083.47
2023-08-08T03:37:14.838Z,101085.69
2023-08-08T03:39:41.578Z,101080.41
2023-08-08T03:42:08.643Z,101080.66
2023-08-08T03:44:35.310Z,101081.25
2023-08-08T03:47:13.752Z,101086.19
2023-08-08T03:49:45.658Z,101079.09
2023-08-08T03:52:12.650Z,101077.81
2023-08-08T03:54:39.668Z,101086.53
2023-08-08T03:57:06.365Z,101075.16
2023-08-08T03:59:33.047Z,101073.03
2023-08-08T04:01:59.876Z,101079.94
2023-08-08T04:04:26.913Z,101083.88
2023-08-08T04:06:53.679Z,101071.22
2023-08-08T04:09:20.359Z,101068.59
2023-08-08T04:11:47.012Z,101068.25
2023-08-08T04:14:13.614Z,101074.63
2023-08-08T04:16:40.865Z,101074.09
2023-08-08T04:19:07.678Z,101072.56
2023-08-08T04:21:34.357Z,101073.31
2023-08-08T04:24:01.234Z,101071.69
2023-08-08T04:26:28.021Z,101072.22
2023-08-08T04:28:54.787Z,101071.06
2023-08-08T04:31:21.518Z,101067.03
2023-08-08T04:33:48.237Z,101064.69
2023-08-08T04:36:14.894Z,101068.31
2023-08-08T04:38:41.511Z,101050.84
2023-08-08T04:41:08.141Z,101059.25
2023-08-08T04:43:34.778Z,101068.59
2023-08-08T04:46:01.440Z,101067.97
2023-08-08T04:48:28.030Z,101061.59
2023-08-08T04:50:54.616Z,101074.56
2023-08-08T04:53:21.207Z,101072.16
2023-08-08T04:55:47.810Z,101060.53
2023-08-08T04:58:14.470Z,101060.81
2023-08-08T05:00:41.156Z,101068.69
2023-08-08T05:03:07.877Z,101050.66
2023-08-08T05:05:36.794Z,101054.53
2023-08-08T05:08:04.048Z,101054.31
2023-08-08T05:10:32.349Z,101063.31
2023-08-08T05:12:59.188Z,101052.72
2023-08-08T05:15:25.776Z,101057.19
2023-08-08T05:17:52.602Z,101051.56
2023-08-08T05:20:19.257Z,101054.28
2023-08-08T05:22:45.871Z,101066.66
2023-08-08T05:25:12.507Z,101053.13
2023-08-08T05:27:39.125Z,101057.44
2023-08-08T05:30:06.396Z,101055.34
2023-08-08T05:32:33.094Z,101064.09
2023-08-08T05:35:01.606Z,101061.03
2023-08-08T05:37:28.378Z,101061.03
2023-08-08T05:39:55.135Z,101068.72
2023-08-08T05:42:21.838Z,101075.88
2023-08-08T05:44:48.501Z,101066.34
2023-08-08T05:47:15.176Z,101063.66
2023-08-08T05:49:44.497Z,101062.13
2023-08-08T05:52:11.513Z,101063.84
2023-08-08T05:54:38.417Z,101066.03
2023-08-08T05:57:05.739Z,101066.50
2023-08-08T05:59:32.381Z,101071.06
2023-08-08T06:02:00.475Z,101069.84
2023-08-08T06:04:27.521Z,101071.44
2023-08-08T06:06:54.175Z,101084.19
2023-08-08T06:09:20.970Z,101077.78
2023-08-08T06:11:47.670Z,101071.34
2023-08-08T06:14:14.344Z,101077.47
2023-08-08T06:16:41.210Z,101081.16
2023-08-08T06:19:07.998Z,101085.16
2023-08-08T06:21:34.626Z,101092.38
2023-08-08T06:24:01.255Z,101086.38
2023-08-08T06:26:27.998Z,101089.84
2023-08-08T06:28:54.623Z,101090.47
2023-08-08T06:31:21.284Z,101095.88
2023-08-08T06:33:48.833Z,101092.53
2023-08-08T06:36:15.603Z,101092.81
2023-08-08T06:38:42.362Z,101082.66
2023-08-08T06:41:09.648Z,101090.94
2023-08-08T06:43:36.252Z,101099.72
2023-08-08T06:46:03.209Z,101089.44
2023-08-08T06:48:29.920Z,101092.50
2023-08-08T06:50:56.611Z,101092.53
2023-08-08T06:53:24.133Z,101091.22
2023-08-08T06:55:50.753Z,101083.03
2023-08-08T06:58:17.380Z,101076.00
2023-08-08T07:00:43.996Z,101087.28
2023-08-08T07:03:11.377Z,101078.94
2023-08-08T07:05:39.468Z,101085.97
2023-08-08T07:08:06.374Z,101088.63
2023-08-08T07:10:32.995Z,101077.22
2023-08-08T07:12:59.598Z,101082.94
2023-08-08T07:15:26.424Z,101074.72
2023-08-08T07:17:53.282Z,101079.25
2023-08-08T07:20:23.204Z,101076.88
2023-08-08T07:22:49.842Z,101076.31
2023-08-08T07:25:16.470Z,101085.06
2023-08-08T07:27:43.171Z,101078.81
2023-08-08T07:30:10.267Z,101076.91
2023-08-08T07:32:37.033Z,101070.50
2023-08-08T07:35:07.027Z,101076.38
2023-08-08T07:37:34.574Z,101069.28
2023-08-08T07:40:01.707Z,101067.59
2023-08-08T07:42:28.456Z,101062.56
2023-08-08T07:44:55.507Z,101066.09
2023-08-08T07:47:22.197Z,101058.13
2023-08-08T07:49:48.832Z,101065.44
2023-08-08T07:52:15.464Z,101062.16
2023-08-08T07:54:42.073Z,101060.19
2023-08-08T07:57:08.751Z,101057.81
2023-08-08T07:59:35.364Z,101059.38
2023-08-08T08:02:02.404Z,101054.47
2023-08-08T08:04:29.410Z,101067.97
2023-08-08T08:06:56.020Z,101069.06
2023-08-08T08:09:22.693Z,101065.31
2023-08-08T08:11:49.345Z,101067.88
2023-08-08T08:14:15.958Z,101063.16
2023-08-08T08:16:42.710Z,101070.84
2023-08-08T08:19:09.409Z,101064.75
2023-08-08T08:21:36.146Z,101061.97
2023-08-08T08:24:03.416Z,101068.09
2023-08-08T08:26:30.077Z,101069.38
2023-08-08T08:28:56.824Z,101072.22
2023-08-08T08:31:23.526Z,101070.84
2023-08-08T08:33:50.273Z,101080.94
2023-08-08T08:36:17.066Z,101072.03
2023-08-08T08:38:43.688Z,101065.13
2023-08-08T08:41:13.933Z,101069.84
2023-08-08T08:43:40.954Z,101061.06
2023-08-08T08:46:10.426Z,101055.84
2023-08-08T08:48:37.079Z,101055.78
2023-08-08T08:51:04.301Z,101055.47
2023-08-08T08:53:31.483Z,101058.03
2023-08-08T08:55:58.692Z,101056.38
2023-08-08T08:58:26.134Z,101056.41
2023-08-08T09:00:53.617Z,101068.16
2023-08-08T09:03:21.164Z,101073.88
2023-08-08T09:05:49.496Z,101066.25
2023-08-08T09:08:16.525Z,101070.50
2023-08-08T09:10:43.306Z,101066.84
2023-08-08T09:13:10.142Z,101070.09
2023-08-08T09:15:36.921Z,101058.28
2023-08-08T09:18:04.035Z,101053.84
2023-08-08T09:20:31.815Z,101052.13
2023-08-08T09:22:58.478Z,101052.25
2023-08-08T09:25:27.013Z,101046.06
2023-08-08T09:27:54.618Z,101053.47
2023-08-08T09:30:22.026Z,101057.22
2023-08-08T09:32:49.272Z,101054.47
2023-08-08T09:35:16.521Z,101056.72
2023-08-08T09:37:43.397Z,101062.53
2023-08-08T09:40:12.899Z,101067.28
2023-08-08T09:42:41.458Z,101066.38
2023-08-08T09:45:09.966Z,101063.22
2023-08-08T09:47:37.597Z,101060.56
2023-08-08T09:50:08.040Z,101058.38
2023-08-08T09:52:36.249Z,101055.00
2023-08-08T09:55:04.299Z,101059.75
2023-08-08T09:57:31.436Z,101059.47
2023-08-08T09:59:58.759Z,101060.84
2023-08-08T10:02:26.123Z,101060.66
2023-08-08T10:04:53.893Z,101068.13
2023-08-08T10:07:20.662Z,101072.09
2023-08-08T10:09:47.391Z,101058.66
2023-08-08T10:12:14.244Z,101057.66
2023-08-08T10:14:43.885Z,101058.41
2023-08-08T10:17:15.488Z,101057.00
2023-08-08T10:19:51.544Z,101058.28
2023-08-08T10:22:22.325Z,101059.56
2023-08-08T10:24:50.121Z,101055.53
2023-08-08T10:27:38.214Z,101048.91
2023-08-08T10:30:08.422Z,101064.25
2023-08-08T10:32:45.397Z,101053.88
2023-08-08T10:35:13.131Z,101057.63
2023-08-08T10:37:41.191Z,101056.41
2023-08-08T10:40:09.157Z,101052.50
2023-08-08T10:42:44.267Z,101057.41
2023-08-08T10:45:15.913Z,101060.47
2023-08-08T10:47:43.594Z,101071.38
2023-08-08T10:50:15.732Z,101065.59
2023-08-08T10:52:54.359Z,101071.16
2023-08-08T10:55:27.299Z,101065.94
2023-08-08T10:58:06.154Z,101076.25
2023-08-08T11:00:34.423Z,101070.16
2023-08-08T11:03:01.934Z,101078.88
2023-08-08T11:05:33.051Z,101077.25
2023-08-08T11:08:01.342Z,101071.81
2023-08-08T11:10:34.084Z,101074.78
2023-08-08T11:13:05.608Z,101071.41
2023-08-08T11:15:37.507Z,101077.88
2023-08-08T11:18:05.334Z,101071.25
2023-08-08T11:20:34.242Z,101071.09
2023-08-08T11:23:01.722Z,101066.00
2023-08-08T11:25:31.505Z,101076.53
2023-08-08T11:27:59.633Z,101066.00
2023-08-08T11:30:30.313Z,101068.09
2023-08-08T11:35:26.975Z,101052.22
2023-08-08T11:37:55.165Z,101052.41
2023-08-08T11:40:23.917Z,101046.88
2023-08-08T11:42:52.462Z,101061.06
2023-08-08T11:45:20.096Z,101056.16
2023-08-08T11:47:51.678Z,101054.75
2023-08-08T11:50:21.017Z,101052.63
2023-08-08T11:52:47.979Z,101051.94
2023-08-08T11:55:14.928Z,101051.78
2023-08-08T11:57:42.058Z,101040.47
2023-08-08T12:00:10.391Z,101047.78
2023-08-08T12:02:37.098Z,101046.41
2023-08-08T12:05:23.641Z,101044.81
2023-08-08T12:07:51.433Z,101038.50
2023-08-08T12:10:23.575Z,101039.28
2023-08-08T12:12:59.011Z,101035.72
2023-08-08T12:15:30.430Z,101030.25
2023-08-08T12:17:57.314Z,101032.81
2023-08-08T12:20:23.974Z,101028.25
2023-08-08T12:22:50.618Z,101029.09
2023-08-08T12:25:17.314Z,101032.53
2023-08-08T12:27:43.928Z,101031.91
2023-08-08T12:30:10.629Z,101031.53
2023-08-08T12:32:37.295Z,101041.97
2023-08-08T12:35:04.261Z,101035.31
2023-08-08T12:37:30.929Z,101037.41
2023-08-08T12:39:58.235Z,101034.63
2023-08-08T12:42:24.922Z,101036.72
2023-08-08T12:44:54.158Z,101021.66
2023-08-08T12:47:22.280Z,101021.31
2023-08-08T12:49:49.159Z,101042.69
2023-08-08T12:52:16.016Z,101040.97
2023-08-08T12:54:42.688Z,101031.25
2023-08-08T12:57:10.165Z,101020.97
2023-08-08T12:59:36.998Z,101021.78
2023-08-08T13:02:04.478Z,101018.16
2023-08-08T13:04:31.696Z,101019.41
2023-08-08T13:06:58.466Z,101017.69
2023-08-08T13:09:25.220Z,101018.50
2023-08-08T13:11:51.883Z,101012.69
2023-08-08T13:14:18.540Z,101025.59
2023-08-08T13:16:45.267Z,101003.75
2023-08-08T13:19:12.471Z,101011.59
2023-08-08T13:21:39.154Z,101012.50
2023-08-08T13:24:07.203Z,101016.56
2023-08-08T13:26:33.849Z,101008.25
2023-08-08T13:29:00.588Z,101014.69
2023-08-08T13:31:27.195Z,101015.78
2023-08-08T13:33:53.801Z,101010.75
2023-08-08T13:36:20.395Z,101012.50
2023-08-08T13:38:47.035Z,101016.09
2023-08-08T13:41:13.679Z,101018.16
2023-08-08T13:43:40.367Z,101026.94
2023-08-08T13:46:09.196Z,101019.88
2023-08-08T13:48:36.141Z,101020.66
2023-08-08T13:51:03.903Z,101019.75
2023-08-08T13:53:30.625Z,101011.09
2023-08-08T13:55:57.450Z,101023.03
2023-08-08T13:58:24.184Z,101019.00
2023-08-08T14:00:51.619Z,101024.34
2023-08-08T14:03:18.993Z,101023.84
2023-08-08T14:05:45.799Z,101020.22
2023-08-08T14:08:12.423Z,101024.28
2023-08-08T14:10:39.097Z,101026.66
2023-08-08T14:13:05.828Z,101023.78
2023-08-08T14:15:34.650Z,101029.31
2023-08-08T14:18:01.394Z,101027.88
2023-08-08T14:20:28.497Z,101028.50
2023-08-08T14:22:55.199Z,101034.63
2023-08-08T14:25:22.214Z,101024.41
2023-08-08T14:27:49.023Z,101035.59
2023-08-08T14:30:15.728Z,101033.25
2023-08-08T14:32:42.441Z,101030.91
2023-08-08T14:35:09.987Z,101025.59
2023-08-08T14:37:37.190Z,101024.03
2023-08-08T14:40:04.174Z,101019.78
2023-08-08T14:42:30.770Z,101026.84
2023-08-08T14:44:57.467Z,101034.72
2023-08-08T14:47:24.352Z,101033.16
2023-08-08T14:49:52.251Z,101029.22
2023-08-08T14:52:18.869Z,101030.31
2023-08-08T14:54:45.812Z,101044.78
2023-08-08T14:57:12.426Z,101048.88
2023-08-08T14:59:39.130Z,101032.50
2023-08-08T15:02:05.874Z,101043.53
2023-08-08T15:04:34.072Z,101030.97
2023-08-08T15:07:00.870Z,101028.91
2023-08-08T15:09:28.194Z,101032.84
2023-08-08T15:11:54.867Z,101032.50
2023-08-08T15:14:21.531Z,101033.16
2023-08-08T15:16:54.597Z,101036.28
2023-08-08T15:19:21.512Z,101026.97
2023-08-08T15:21:48.183Z,101038.78
2023-08-08T15:24:14.879Z,101038.31
2023-08-08T15:26:41.544Z,101036.91
2023-08-08T15:29:08.325Z,101026.38
2023-08-08T15:31:35.086Z,101032.84
2023-08-08T15:34:01.896Z,101024.03
2023-08-08T15:36:28.631Z,101024.97
2023-08-08T15:38:55.434Z,101024.66
2023-08-08T15:41:22.151Z,101028.41
2023-08-08T15:43:48.795Z,101039.13
2023-08-08T15:46:15.654Z,101050.47
2023-08-08T15:48:42.297Z,101037.41
2023-08-08T15:51:08.968Z,101040.53
2023-08-08T15:53:35.602Z,101034.56
2023-08-08T15:56:02.802Z,101038.19
2023-08-08T15:58:29.441Z,101037.53
2023-08-08T16:00:56.928Z,101036.63
2023-08-08T16:03:23.726Z,101047.31
2023-08-08T16:05:50.446Z,101045.41
2023-08-08T16:08:18.790Z,101042.69
2023-08-08T16:10:45.991Z,101048.34
2023-08-08T16:13:12.647Z,101043.78
2023-08-08T16:15:39.288Z,101043.16
2023-08-08T16:18:06.687Z,101041.59
2023-08-08T16:20:33.362Z,101045.66
2023-08-08T16:23:02.870Z,101041.25
2023-08-08T16:25:29.569Z,101048.03
2023-08-08T16:27:56.160Z,101043.19
2023-08-08T16:30:22.828Z,101038.44
2023-08-08T16:32:49.479Z,101047.56
2023-08-08T16:35:16.113Z,101045.56
2023-08-08T16:37:42.756Z,101044.75
2023-08-08T16:40:09.617Z,101049.31
2023-08-08T16:42:36.337Z,101039.91
2023-08-08T16:45:03.713Z,101039.75
2023-08-08T16:47:30.324Z,101049.31
2023-08-08T16:49:56.903Z,101047.94
2023-08-08T16:52:23.605Z,101047.78
2023-08-08T16:54:51.471Z,101047.00
2023-08-08T16:57:19.648Z,101050.56
2023-08-08T16:59:46.234Z,101062.00
2023-08-08T17:02:12.844Z,101056.97
2023-08-08T17:04:40.543Z,101055.06
2023-08-08T17:07:07.199Z,101056.47
2023-08-08T17:09:34.032Z,101049.88
2023-08-08T17:12:00.726Z,101050.97
2023-08-08T17:14:27.379Z,101044.50
2023-08-08T17:16:54.737Z,101036.59
2023-08-08T17:19:21.568Z,101036.91
2023-08-08T17:21:48.216Z,101038.47
2023-08-08T17:24:22.492Z,101037.50
2023-08-08T17:26:52.221Z,101041.41
2023-08-08T17:29:18.898Z,101041.06
2023-08-08T17:31:45.680Z,101033.97
2023-08-08T17:34:12.342Z,101032.06
2023-08-08T17:36:38.975Z,101036.06
2023-08-08T17:39:05.803Z,101044.06
2023-08-08T17:41:32.464Z,101044.22
2023-08-08T17:43:59.140Z,101036.50
2023-08-08T17:46:25.815Z,101039.63
2023-08-08T17:48:53.715Z,101034.72
2023-08-08T17:51:20.441Z,101022.72
2023-08-08T17:53:48.392Z,101043.88
2023-08-08T17:56:15.498Z,101034.47
2023-08-08T17:58:45.741Z,101034.31
2023-08-08T18:01:13.552Z,101036.28
2023-08-08T18:03:41.113Z,101042.41
2023-08-08T18:06:07.845Z,101049.94
2023-08-08T18:08:34.670Z,101044.94
2023-08-08T18:11:01.422Z,101050.00
2023-08-08T18:13:28.139Z,101041.81
2023-08-08T18:15:56.186Z,101049.50
2023-08-08T18:18:24.632Z,101045.53
2023-08-08T18:20:51.313Z,101035.31
2023-08-08T18:23:18.423Z,101036.31
2023-08-08T18:25:45.590Z,101043.81
2023-08-08T18:28:12.668Z,101044.09
2023-08-08T18:30:39.314Z,101042.53
2023-08-08T18:33:05.995Z,101035.31
2023-08-08T18:35:33.330Z,101030.78
2023-08-08T18:38:00.006Z,101033.78
2023-08-08T18:40:26.620Z,101030.44
2023-08-08T18:42:53.286Z,101038.34
2023-08-08T18:45:20.037Z,101027.44
2023-08-08T18:47:46.709Z,101027.19
2023-08-08T18:50:13.394Z,101030.94
2023-08-08T18:52:40.066Z,101029.06
2023-08-08T18:55:06.981Z,101035.78
2023-08-08T18:57:35.053Z,101042.50
2023-08-08T19:00:03.966Z,101046.97
2023-08-08T19:02:30.645Z,101046.34
2023-08-08T19:04:57.390Z,101052.69
2023-08-08T19:07:24.172Z,101053.69
2023-08-08T19:09:50.803Z,101038.47
2023-08-08T19:12:17.455Z,101040.38
2023-08-08T19:14:44.142Z,101041.16
2023-08-08T19:17:10.783Z,101038.97
2023-08-08T19:19:37.396Z,101036.22
2023-08-08T19:22:04.029Z,101046.56
2023-08-08T19:24:30.658Z,101042.63
2023-08-08T19:26:57.301Z,101051.13
2023-08-08T19:29:23.944Z,101037.41
2023-08-08T19:31:50.559Z,101037.31
2023-08-08T19:34:17.266Z,101043.72
2023-08-08T19:36:43.994Z,101040.28
2023-08-08T19:39:10.611Z,101046.19
2023-08-08T19:41:37.218Z,101041.47
2023-08-08T19:44:04.004Z,101043.72
2023-08-08T19:46:30.651Z,101042.34
2023-08-08T19:48:57.392Z,101057.13
2023-08-08T19:51:24.177Z,101074.78
2023-08-08T19:53:50.809Z,101069.91
2023-08-08T19:56:17.437Z,101064.06
2023-08-08T19:58:44.093Z,101055.69
2023-08-08T20:01:11.296Z,101057.25
2023-08-08T20:03:39.022Z,101065.25
2023-08-08T20:06:05.692Z,101053.81
2023-08-08T20:08:32.321Z,101050.22
2023-08-08T20:10:59.086Z,101036.03
2023-08-08T20:13:27.217Z,101039.03
2023-08-08T20:15:54.640Z,101027.81
2023-08-08T20:18:21.352Z,101031.22
2023-08-08T20:20:48.018Z,101025.34
2023-08-08T20:23:14.639Z,101017.34
2023-08-08T20:25:41.387Z,101020.50
2023-08-08T20:28:08.201Z,101016.28
2023-08-08T20:30:36.219Z,101014.19
2023-08-08T20:33:03.328Z,101003.75
2023-08-08T20:35:30.041Z,101005.34
2023-08-08T20:37:56.721Z,100997.66
2023-08-08T20:40:23.687Z,100995.09
2023-08-08T20:42:50.465Z,100992.63
2023-08-08T20:45:17.281Z,100995.47
2023-08-08T20:47:43.963Z,100988.38
2023-08-08T20:50:11.010Z,100988.66
2023-08-08T20:52:38.478Z,100992.34
2023-08-08T20:55:06.077Z,100989.16
2023-08-08T20:57:32.748Z,100988.38
2023-08-08T20:59:59.801Z,100990.53
2023-08-08T21:02:26.885Z,100989.34
2023-08-08T21:04:53.665Z,100987.47
2023-08-08T21:07:20.539Z,100989.34
2023-08-08T21:09:47.634Z,100988.75
2023-08-08T21:12:15.653Z,100991.91
2023-08-08T21:14:42.799Z,100982.47
2023-08-08T21:17:09.553Z,100975.53
2023-08-08T21:19:36.454Z,100973.66
2023-08-08T21:22:03.314Z,100974.56
2023-08-08T21:24:30.940Z,100965.28
2023-08-08T21:26:57.534Z,100959.00
2023-08-08T21:29:24.165Z,100959.19
2023-08-08T21:31:50.761Z,100956.41
2023-08-08T21:34:17.389Z,100955.53
2023-08-08T21:36:44.079Z,100953.47
2023-08-08T21:39:10.740Z,100955.44
2023-08-08T21:41:37.391Z,100953.06
2023-08-08T21:44:04.301Z,100948.25
2023-08-08T21:46:30.937Z,100926.88
2023-08-08T21:48:58.962Z,100928.16
2023-08-08T21:51:25.769Z,100922.13
2023-08-08T21:53:52.424Z,100913.69
2023-08-08T21:56:19.067Z,100923.72
2023-08-08T21:58:45.717Z,100924.22
2023-08-08T22:01:12.498Z,100917.72
2023-08-08T22:03:39.223Z,100912.41
2023-08-08T22:06:07.035Z,100920.69
2023-08-08T22:08:33.698Z,100911.41
2023-08-08T22:11:00.579Z,100901.47
2023-08-08T22:13:28.453Z,100899.59
2023-08-08T22:15:55.462Z,100902.75
2023-08-08T22:18:22.386Z,100899.50
2023-08-08T22:20:49.071Z,100895.28
2023-08-08T22:23:20.468Z,100896.44
2023-08-08T22:25:49.973Z,100895.38
2023-08-08T22:28:17.057Z,100892.41
2023-08-08T22:30:43.826Z,100894.06
2023-08-08T22:33:10.608Z,100880.69
2023-08-08T22:35:37.288Z,100883.84
2023-08-08T22:38:04.236Z,100886.50
2023-08-08T22:40:31.266Z,100874.28
2023-08-08T22:42:57.929Z,100871.50
2023-08-08T22:45:24.796Z,100874.28
2023-08-08T22:47:51.520Z,100864.13
2023-08-08T22:50:18.262Z,100868.28
2023-08-08T22:52:45.081Z,100872.00
2023-08-08T22:55:12.572Z,100868.28
2023-08-08T22:57:39.363Z,100862.75
2023-08-08T23:00:08.160Z,100866.59
2023-08-08T23:02:35.352Z,100863.81
2023-08-08T23:05:02.439Z,100861.47
2023-08-08T23:07:29.186Z,100852.13
2023-08-08T23:09:55.870Z,100860.00
2023-08-08T23:12:22.551Z,100865.72
2023-08-08T23:14:49.261Z,100862.56
2023-08-08T23:17:15.999Z,100857.34
2023-08-08T23:19:42.648Z,100858.03
2023-08-08T23:22:09.363Z,100865.94
2023-08-08T23:24:36.086Z,100866.22
2023-08-08T23:27:03.263Z,100869.16
2023-08-08T23:29:30.207Z,100861.78
2023-08-08T23:31:56.890Z,100855.09
2023-08-08T23:34:23.580Z,100856.06
2023-08-08T23:36:50.293Z,100851.63
2023-08-08T23:39:17.416Z,100858.31
2023-08-08T23:41:45.128Z,100851.75
2023-08-08T23:44:11.966Z,100858.94
2023-08-08T23:46:38.714Z,100862.84
2023-08-08T23:49:08.529Z,100870.66
2023-08-08T23:51:37.210Z,100872.13
2023-08-08T23:54:04.690Z,100881.84
2023-08-08T23:56:31.392Z,100879.69
2023-08-08T23:58:58.072Z,100883.44
